Mendon, UT (84325)

12:50 PM MDT on October 21, 2019 (GMT -0600)
Mendon, Cobblestone - Dyacon.com | | Change Station

Elev 4659 ft 41.70 °N, 111.98 °W | Updated 56 seconds ago

Overcast
Overcast
48.38 °F
Feels Like 44 °F
N
10.2856
Wind Variable Wind from NW
Gusts 19.0 mph

Today
High -- | Low -- °F
--% Chance of Precip.
Yesterday
High -- | Low -- °F
Precip. -- in
Pressure 30.20 in
Visibility 10.0 miles
Clouds Overcast 6000 ft
Windchill 44 °F
Dew Point 31 °F
Humidity 50%
Rainfall 0.01 in
Snow Depth Not available.
7:46 AM 6:37 PM
Waning Gibbous, 47% visible
METAR KLGU 211751Z AUTO 31011KT 10SM OVC060 08/00 A3022 RMK AO2 SLP227 T00830000 10083 20028 51020 $
Pressure 30.20 in
Visibility 10.0 miles
Clouds Overcast 6000 ft
Windchill 44 °F
Dew Point 31 °F
Humidity 50%
Rainfall 0.01 in
Snow Depth Not available.
7:46 AM 6:37 PM
Waning Gibbous, 47% visible
METAR KLGU 211751Z AUTO 31011KT 10SM OVC060 08/00 A3022 RMK AO2 SLP227 T00830000 10083 20028 51020 $

Get Severe Weather Alerts

Thanks for signing up!

Be on the lookout for a verification email in your inbox.

You'll start receiving the daily forecast at 6 AM.

×

10-Day Weather Forecast

Almanac

Astronomy

Oct. 21, 2019 Rise Set
Actual Time
Civil Twilight
Nautical Twilight
Astronomical Twilight
Moon
Length of Visible Light
Length of Day
Tomorrow will be .
, % of the Moon is Illuminated

Today's Extremes

State Highs State Lows

Community

WunderPhotos

Category 6

Welcome to Category 6. This is the collective home for Weather Underground's featured writeups by Dr. Jeff Masters (right), Bob Henson (left), Chris Burt, and other regular contributors.

Nearby

Air Quality

  Air Quality AQ Index Pollutant
Not available.

Snow Depth

Station Depth Elevation

Earthquake Activity

City Distance Mag. Time & Date
Minimum magnitude displayed is 2.5.

Coastal Water Temperatures

Place Temperature

Stations

Nearby Weather Stations

Station Location Temp. Windchill Dew Point Humidity Wind Precip. Elev Updated Type
                   

Watches & Warnings

There are currently no watches in effect.